Time;durP1;ratioP1;P1;durP2;ratioP2;P2;SDS_P1;SDS_P2;PMS_P1;PMS_P2;Temp;Humidity;BMP_temperature;BMP_pressure;BME280_temperature;BME280_humidity;BME280_pressure;Samples;Min_cycle;Max_cycle;Signal;HPM_P1;HPM_P2
2022/11/26 00:00:49;;;;;;;14.60;6.68;;;;;;;;;;4874406;29;20058;-66
2022/11/26 00:03:16;;;;;;;17.33;7.00;;;;;;;;;;4860166;29;20060;-65
2022/11/26 00:05:43;;;;;;;14.68;6.70;;;;;;;;;;4873811;29;20451;-65
2022/11/26 00:08:14;;;;;;;17.60;6.45;;;;;;;;;;4860294;29;20459;-65
2022/11/26 00:10:40;;;;;;;15.50;6.40;;;;;;;;;;4860837;29;20105;-64
2022/11/26 00:13:14;;;;;;;16.77;6.93;;;;;;;;;;4860131;29;20050;-65
2022/11/26 00:15:41;;;;;;;;;;;;;;;;;;4859965;29;20057;-65
2022/11/26 00:18:07;;;;;;;16.70;6.55;;;;;;;;;;4874275;29;19931;-64
2022/11/26 00:20:33;;;;;;;17.15;7.22;;;;;;;;;;4860058;29;20487;-63
2022/11/26 00:23:02;;;;;;;18.08;6.75;;;;;;;;;;4859886;29;20529;-64
2022/11/26 00:25:41;;;;;;;16.25;7.07;;;;;;;;;;4859322;29;20507;-65
2022/11/26 00:28:27;;;;;;;13.95;6.85;;;;;;;;;;4874076;29;20116;-64
2022/11/26 00:30:55;;;;;;;16.40;7.15;;;;;;;;;;4859698;29;20056;-65
2022/11/26 00:33:22;;;;;;;19.27;7.15;;;;;;;;;;4859807;29;20057;-65
2022/11/26 00:35:54;;;;;;;18.00;6.80;;;;;;;;;;4859413;29;20056;-65
2022/11/26 00:38:21;;;;;;;17.40;7.13;;;;;;;;;;4859767;29;20053;-64
2022/11/26 00:40:48;;;;;;;18.38;7.13;;;;;;;;;;4859820;29;20467;-65
2022/11/26 00:43:15;;;;;;;22.50;7.97;;;;;;;;;;4859670;29;20049;-65
2022/11/26 00:45:42;;;;;;;19.05;7.07;;;;;;;;;;4873511;29;20037;-65
2022/11/26 00:48:09;;;;;;;15.45;6.90;;;;;;;;;;4860015;29;20045;-65
2022/11/26 00:50:37;;;;;;;15.05;7.25;;;;;;;;;;4859777;29;20046;-65
2022/11/26 00:53:04;;;;;;;17.90;7.03;;;;;;;;;;4873922;29;20053;-63
2022/11/26 00:55:38;;;;;;;18.23;6.28;;;;;;;;;;4859292;29;20045;-64
2022/11/26 00:58:05;;;;;;;19.58;7.43;;;;;;;;;;4873948;29;20053;-64
2022/11/26 01:00:33;;;;;;;20.58;6.90;;;;;;;;;;4859648;29;20048;-64
2022/11/26 01:03:00;;;;;;;19.83;7.75;;;;;;;;;;4859613;29;20418;-64
2022/11/26 01:05:32;;;;;;;15.88;6.80;;;;;;;;;;4859085;29;20056;-64
2022/11/26 01:08:01;;;;;;;23.55;7.05;;;;;;;;;;4859843;29;20120;-64
2022/11/26 01:10:28;;;;;;;19.33;6.88;;;;;;;;;;4859750;29;20050;-64
2022/11/26 01:12:55;;;;;;;16.50;6.85;;;;;;;;;;4859545;29;20041;-65
2022/11/26 01:15:23;;;;;;;17.73;6.97;;;;;;;;;;4858946;29;20057;-64
2022/11/26 01:17:50;;;;;;;19.40;6.32;;;;;;;;;;4859487;29;20511;-64
2022/11/26 01:20:23;;;;;;;12.07;5.85;;;;;;;;;;4859651;29;20609;-65
2022/11/26 01:22:52;;;;;;;17.10;6.40;;;;;;;;;;4874009;29;20054;-65
2022/11/26 01:25:19;;;;;;;17.48;6.05;;;;;;;;;;4858945;29;20049;-64
2022/11/26 01:27:45;;;;;;;15.02;6.43;;;;;;;;;;4859566;29;20046;-64
2022/11/26 01:30:23;;;;;;;11.63;6.10;;;;;;;;;;4873911;29;20057;-64
2022/11/26 01:32:50;;;;;;;16.08;6.25;;;;;;;;;;4859786;29;20046;-65
2022/11/26 01:35:17;;;;;;;17.55;6.72;;;;;;;;;;4859349;29;20499;-64
2022/11/26 01:37:44;;;;;;;13.77;6.38;;;;;;;;;;4859547;29;20053;-65
2022/11/26 01:40:38;;;;;;;18.73;8.02;;;;;;;;;;4859244;29;20567;-64
2022/11/26 01:43:14;;;;;;;21.98;7.38;;;;;;;;;;4875039;29;20102;-65
2022/11/26 01:45:40;;;;;;;16.05;6.38;;;;;;;;;;4878608;29;20053;-63
2022/11/26 01:48:26;;;;;;;21.38;7.05;;;;;;;;;;4864104;29;20128;-64
2022/11/26 01:51:02;;;;;;;16.35;5.93;;;;;;;;;;4878646;29;20094;-65
2022/11/26 01:53:31;;;;;;;13.15;5.93;;;;;;;;;;4865806;29;20049;-64
2022/11/26 01:55:59;;;;;;;13.10;5.88;;;;;;;;;;4866320;29;20045;-64
2022/11/26 01:58:37;;;;;;;11.90;5.82;;;;;;;;;;4867487;29;20045;-65
2022/11/26 02:01:05;;;;;;;15.90;6.18;;;;;;;;;;4881353;29;20046;-64
2022/11/26 02:03:36;;;;;;;12.25;5.65;;;;;;;;;;4881082;29;20052;-64
2022/11/26 02:06:05;;;;;;;12.73;6.10;;;;;;;;;;4863578;29;20673;-65
2022/11/26 02:08:33;;;;;;;12.93;6.05;;;;;;;;;;4877290;29;20460;-64
2022/11/26 02:11:07;;;;;;;14.57;6.53;;;;;;;;;;4862661;29;20053;-64
2022/11/26 02:13:34;;;;;;;18.85;6.97;;;;;;;;;;4862356;29;20124;-64
2022/11/26 02:16:09;;;;;;;21.75;6.70;;;;;;;;;;4861830;29;20086;-64
2022/11/26 02:18:37;;;;;;;17.23;6.68;;;;;;;;;;4861846;29;20053;-64
2022/11/26 02:21:05;;;;;;;13.02;6.13;;;;;;;;;;4862565;29;20056;-64
2022/11/26 02:23:50;;;;;;;19.73;7.05;;;;;;;;;;4862887;29;20046;-64
2022/11/26 02:26:19;;;;;;;12.02;5.65;;;;;;;;;;4861540;29;20049;-64
2022/11/26 02:29:06;;;;;;;13.77;6.07;;;;;;;;;;4876562;29;20065;-64
2022/11/26 02:31:36;;;;;;;15.20;6.30;;;;;;;;;;4832565;29;20061;-64
2022/11/26 02:34:11;;;;;;;15.98;6.78;;;;;;;;;;4861842;29;20046;-65
2022/11/26 02:36:47;;;;;;;22.50;7.53;;;;;;;;;;4861212;29;20049;-64
2022/11/26 02:39:17;;;;;;;20.33;7.35;;;;;;;;;;4861577;29;20046;-64
2022/11/26 02:41:45;;;;;;;17.75;7.65;;;;;;;;;;4861604;29;20041;-64
2022/11/26 02:44:13;;;;;;;25.00;8.40;;;;;;;;;;4861584;29;20046;-64
2022/11/26 02:46:40;;;;;;;23.05;7.95;;;;;;;;;;4860944;29;20452;-64
2022/11/26 02:49:08;;;;;;;21.77;7.40;;;;;;;;;;4861430;29;20042;-64
2022/11/26 02:51:35;;;;;;;19.70;7.10;;;;;;;;;;4861426;29;20113;-65
2022/11/26 02:54:01;;;;;;;20.38;8.02;;;;;;;;;;4861279;29;20106;-64
2022/11/26 02:56:27;;;;;;;17.27;7.22;;;;;;;;;;4860655;29;20045;-64
2022/11/26 02:58:54;;;;;;;18.20;6.80;;;;;;;;;;4861284;29;20053;-64
2022/11/26 03:01:34;;;;;;;15.30;7.25;;;;;;;;;;4860925;29;20105;-64
2022/11/26 03:04:04;;;;;;;13.35;6.00;;;;;;;;;;4861491;29;20448;-64
2022/11/26 03:06:31;;;;;;;19.65;5.95;;;;;;;;;;4860523;29;20045;-64
2022/11/26 03:08:58;;;;;;;15.77;5.93;;;;;;;;;;4875356;29;20053;-64
2022/11/26 03:11:24;;;;;;;19.70;6.38;;;;;;;;;;4861030;29;20089;-65
2022/11/26 03:13:50;;;;;;;19.50;6.95;;;;;;;;;;4861036;29;20492;-65
2022/11/26 03:16:17;;;;;;;17.52;6.00;;;;;;;;;;4860396;29;20647;-65
2022/11/26 03:18:43;;;;;;;18.38;7.32;;;;;;;;;;4860968;29;20507;-64
2022/11/26 03:21:10;;;;;;;19.95;6.68;;;;;;;;;;4860786;29;20045;-64
2022/11/26 03:23:36;;;;;;;22.95;8.05;;;;;;;;;;4860831;29;20567;-65
2022/11/26 03:26:03;;;;;;;22.67;7.80;;;;;;;;;;4860344;29;20042;-65
2022/11/26 03:28:29;;;;;;;20.75;8.90;;;;;;;;;;4860775;29;20052;-65
2022/11/26 03:30:55;;;;;;;20.90;8.23;;;;;;;;;;4860646;29;20571;-65
2022/11/26 03:33:22;;;;;;;23.90;8.40;;;;;;;;;;4860578;29;20471;-65
2022/11/26 03:35:48;;;;;;;26.70;7.90;;;;;;;;;;4874425;29;20113;-65
2022/11/26 03:38:15;;;;;;;32.47;8.52;;;;;;;;;;4860608;29;20045;-65
2022/11/26 03:40:41;;;;;;;22.90;7.93;;;;;;;;;;4860482;29;20113;-65
2022/11/26 03:43:08;;;;;;;26.63;8.18;;;;;;;;;;4860551;29;20515;-65
2022/11/26 03:45:34;;;;;;;20.90;6.95;;;;;;;;;;4859891;29;20079;-65
2022/11/26 03:48:01;;;;;;;16.40;7.38;;;;;;;;;;4859143;29;20056;-65
2022/11/26 03:50:27;;;;;;;22.45;7.70;;;;;;;;;;4860463;29;20049;-65
2022/11/26 03:52:54;;;;;;;18.65;7.15;;;;;;;;;;4860403;29;20052;-65
2022/11/26 03:55:20;;;;;;;25.58;12.90;;;;;;;;;;4859835;29;20049;-65
2022/11/26 03:57:46;;;;;;;15.85;7.65;;;;;;;;;;4874678;29;20056;-65
2022/11/26 04:00:13;;;;;;;14.93;7.28;;;;;;;;;;4860196;29;20078;-65
2022/11/26 04:02:39;;;;;;;14.02;7.18;;;;;;;;;;4860007;29;20052;-65
2022/11/26 04:05:06;;;;;;;15.02;6.47;;;;;;;;;;4859610;29;20056;-65
2022/11/26 04:07:32;;;;;;;11.82;6.15;;;;;;;;;;4873811;29;20049;-65
2022/11/26 04:09:59;;;;;;;10.25;6.20;;;;;;;;;;4860059;29;20056;-65
2022/11/26 04:12:25;;;;;;;14.07;6.50;;;;;;;;;;4859979;29;20082;-65
2022/11/26 04:14:52;;;;;;;11.65;6.13;;;;;;;;;;4859967;29;20065;-65
2022/11/26 04:17:18;;;;;;;13.18;5.53;;;;;;;;;;4859373;29;20502;-65
2022/11/26 04:19:44;;;;;;;13.77;6.03;;;;;;;;;;4860170;29;20459;-65
2022/11/26 04:22:11;;;;;;;10.40;5.93;;;;;;;;;;4859786;29;20049;-65
2022/11/26 04:24:37;;;;;;;15.48;7.03;;;;;;;;;;4859928;29;20049;-65
2022/11/26 04:27:04;;;;;;;11.35;5.90;;;;;;;;;;4873521;29;20049;-65
2022/11/26 04:29:30;;;;;;;12.80;6.53;;;;;;;;;;4859924;29;20050;-65
2022/11/26 04:31:57;;;;;;;12.77;6.70;;;;;;;;;;4860479;29;20081;-65
2022/11/26 04:34:23;;;;;;;10.48;6.07;;;;;;;;;;4860363;29;20052;-65
2022/11/26 04:36:50;;;;;;;14.63;7.30;;;;;;;;;;4859651;29;20415;-65
2022/11/26 04:39:16;;;;;;;17.70;6.95;;;;;;;;;;4860226;29;20054;-65
2022/11/26 04:41:43;;;;;;;14.60;6.93;;;;;;;;;;4859630;29;20042;-64
2022/11/26 04:44:09;;;;;;;11.73;6.68;;;;;;;;;;4859700;29;20460;-63
2022/11/26 04:46:36;;;;;;;12.18;6.50;;;;;;;;;;4859182;29;20049;-62
2022/11/26 04:49:02;;;;;;;7.93;5.43;;;;;;;;;;4859915;29;20106;-63
2022/11/26 04:51:29;;;;;;;10.05;5.65;;;;;;;;;;4859860;29;20049;-63
2022/11/26 04:53:55;;;;;;;6.97;5.65;;;;;;;;;;4859922;29;20098;-64
2022/11/26 04:56:26;;;;;;;9.27;5.28;;;;;;;;;;4859159;29;20129;-65
2022/11/26 04:58:53;;;;;;;23.85;12.95;;;;;;;;;;4859603;29;20495;-65
2022/11/26 05:01:19;;;;;;;7.90;5.20;;;;;;;;;;5328737;23;20019;-64
2022/11/26 05:03:46;;;;;;;7.35;4.97;;;;;;;;;;4915237;29;20105;-65
2022/11/26 05:06:12;;;;;;;7.30;4.63;;;;;;;;;;4913873;29;20099;-65
2022/11/26 05:08:39;;;;;;;6.35;4.60;;;;;;;;;;4930170;29;20046;-65
2022/11/26 05:11:05;;;;;;;16.85;5.10;;;;;;;;;;4915608;29;20048;-65
2022/11/26 05:13:32;;;;;;;33.97;5.85;;;;;;;;;;4896742;29;20092;-65
2022/11/26 05:15:58;;;;;;;8.75;5.15;;;;;;;;;;4894765;29;20513;-65
2022/11/26 05:18:24;;;;;;;30.45;6.65;;;;;;;;;;4896675;29;20726;-65
2022/11/26 05:20:51;;;;;;;23.45;5.68;;;;;;;;;;4900586;29;20067;-65
2022/11/26 05:23:17;;;;;;;13.75;4.95;;;;;;;;;;4898838;29;20040;-65
2022/11/26 05:25:44;;;;;;;26.73;5.18;;;;;;;;;;4898366;29;20557;-65
2022/11/26 05:28:10;;;;;;;46.38;6.63;;;;;;;;;;4900028;29;20411;-65
2022/11/26 05:30:37;;;;;;;22.95;5.40;;;;;;;;;;4898761;29;20049;-65
2022/11/26 05:33:03;;;;;;;9.93;4.47;;;;;;;;;;4899988;29;20553;-65
2022/11/26 05:35:29;;;;;;;20.27;4.60;;;;;;;;;;4898181;29;20045;-65
2022/11/26 05:37:56;;;;;;;23.40;5.45;;;;;;;;;;4899932;29;20040;-65
2022/11/26 05:40:22;;;;;;;12.70;4.63;;;;;;;;;;4899908;29;20052;-65
2022/11/26 05:42:48;;;;;;;10.57;4.82;;;;;;;;;;4898181;29;20108;-65
2022/11/26 05:45:15;;;;;;;19.70;5.15;;;;;;;;;;4899091;29;20562;-65
2022/11/26 05:47:42;;;;;;;9.55;6.00;;;;;;;;;;4899767;29;20032;-66
2022/11/26 05:50:08;;;;;;;9.27;5.78;;;;;;;;;;4914087;29;20052;-65
2022/11/26 05:52:35;;;;;;;8.27;5.40;;;;;;;;;;4899887;29;20413;-64
2022/11/26 05:55:01;;;;;;;8.60;5.78;;;;;;;;;;4899200;29;20044;-65
2022/11/26 05:57:28;;;;;;;13.60;6.28;;;;;;;;;;4899494;29;20045;-66
2022/11/26 05:59:54;;;;;;;10.48;6.75;;;;;;;;;;4899358;29;20052;-63
2022/11/26 06:02:20;;;;;;;21.30;8.07;;;;;;;;;;4899123;29;20052;-64
2022/11/26 06:04:47;;;;;;;14.98;7.13;;;;;;;;;;4899286;29;20045;-65
2022/11/26 06:07:13;;;;;;;32.65;9.38;;;;;;;;;;4898840;29;20036;-66
2022/11/26 06:09:40;;;;;;;24.00;8.48;;;;;;;;;;4899348;29;20119;-65
2022/11/26 06:12:06;;;;;;;32.55;9.93;;;;;;;;;;4898963;29;20052;-64
2022/11/26 06:14:33;;;;;;;27.00;9.27;;;;;;;;;;4899258;29;20056;-65
2022/11/26 06:16:59;;;;;;;21.05;8.80;;;;;;;;;;4898602;29;20104;-65
2022/11/26 06:19:26;;;;;;;24.33;9.35;;;;;;;;;;4898001;29;20049;-65
2022/11/26 06:21:52;;;;;;;26.45;9.07;;;;;;;;;;4897858;29;20683;-65
2022/11/26 06:24:19;;;;;;;25.17;9.23;;;;;;;;;;4897901;29;20057;-65
2022/11/26 06:26:45;;;;;;;19.30;8.63;;;;;;;;;;4913092;29;20084;-65
2022/11/26 06:29:12;;;;;;;22.25;9.32;;;;;;;;;;4912690;29;20051;-66
2022/11/26 06:31:38;;;;;;;24.52;9.93;;;;;;;;;;4913444;29;20112;-65
2022/11/26 06:34:04;;;;;;;18.38;7.75;;;;;;;;;;4913597;29;20053;-65
2022/11/26 06:36:31;;;;;;;24.58;8.45;;;;;;;;;;4898432;29;20107;-65
2022/11/26 06:38:57;;;;;;;17.67;8.60;;;;;;;;;;4898932;29;20116;-65
2022/11/26 06:41:24;;;;;;;20.80;9.07;;;;;;;;;;4898602;29;20104;-65
2022/11/26 06:43:50;;;;;;;22.88;9.05;;;;;;;;;;4913242;29;20052;-65
2022/11/26 06:46:16;;;;;;;21.60;9.23;;;;;;;;;;4898137;29;20048;-65
2022/11/26 06:48:43;;;;;;;24.50;9.43;;;;;;;;;;4898681;29;20048;-65
2022/11/26 06:51:11;;;;;;;18.98;9.30;;;;;;;;;;4898726;29;20444;-65
2022/11/26 06:53:37;;;;;;;24.60;10.60;;;;;;;;;;4898571;29;20044;-65
2022/11/26 06:56:05;;;;;;;23.73;9.75;;;;;;;;;;4897837;29;20378;-65
2022/11/26 06:58:32;;;;;;;24.08;10.60;;;;;;;;;;4898451;29;20041;-65
2022/11/26 07:00:58;;;;;;;23.42;9.45;;;;;;;;;;4898427;29;20416;-65
2022/11/26 07:03:25;;;;;;;21.55;9.68;;;;;;;;;;4912616;29;20045;-65
2022/11/26 07:05:58;;;;;;;24.50;8.93;;;;;;;;;;4911477;29;20048;-65
2022/11/26 07:08:24;;;;;;;28.65;9.40;;;;;;;;;;4898311;29;20088;-65
2022/11/26 07:10:51;;;;;;;30.70;9.80;;;;;;;;;;4898525;29;20040;-65
2022/11/26 07:13:17;;;;;;;22.58;8.93;;;;;;;;;;4898090;29;20456;-65
2022/11/26 07:15:44;;;;;;;21.98;9.82;;;;;;;;;;4897469;29;20044;-65
2022/11/26 07:18:10;;;;;;;22.08;9.02;;;;;;;;;;4897841;29;20052;-65
2022/11/26 07:20:37;;;;;;;22.60;8.82;;;;;;;;;;4898011;29;20111;-65
2022/11/26 07:23:03;;;;;;;24.10;8.90;;;;;;;;;;4897829;29;20048;-65
2022/11/26 07:25:30;;;;;;;17.13;7.78;;;;;;;;;;4911691;29;20052;-65
2022/11/26 07:27:57;;;;;;;25.20;9.13;;;;;;;;;;4912314;29;20469;-65
2022/11/26 07:30:23;;;;;;;22.33;9.75;;;;;;;;;;4897873;29;20421;-65
2022/11/26 07:32:50;;;;;;;22.60;8.98;;;;;;;;;;4897726;29;20489;-65
2022/11/26 07:35:16;;;;;;;29.30;10.60;;;;;;;;;;4912333;29;20111;-65
2022/11/26 07:37:42;;;;;;;20.77;10.13;;;;;;;;;;4897681;29;20505;-65
2022/11/26 07:40:09;;;;;;;25.45;10.18;;;;;;;;;;4911906;29;20112;-65
2022/11/26 07:42:35;;;;;;;23.45;9.90;;;;;;;;;;4895850;29;20048;-65
2022/11/26 07:45:03;;;;;;;24.10;9.40;;;;;;;;;;4911784;29;20049;-65
2022/11/26 07:47:30;;;;;;;27.02;9.45;;;;;;;;;;4899650;29;20033;-65
2022/11/26 07:49:56;;;;;;;22.60;10.35;;;;;;;;;;4897698;29;20096;-65
2022/11/26 07:52:22;;;;;;;26.02;11.05;;;;;;;;;;4896455;29;20080;-65
2022/11/26 07:54:49;;;;;;;29.52;10.00;;;;;;;;;;4912053;29;20052;-65
2022/11/26 07:57:25;;;;;;;30.10;10.40;;;;;;;;;;4911922;29;20063;-65
2022/11/26 07:59:51;;;;;;;25.13;10.50;;;;;;;;;;4912123;29;20493;-65
2022/11/26 08:02:18;;;;;;;26.38;10.23;;;;;;;;;;4911853;29;20426;-65
2022/11/26 08:04:45;;;;;;;23.90;11.13;;;;;;;;;;4911667;29;20052;-65
2022/11/26 08:07:15;;;;;;;37.67;13.15;;;;;;;;;;4895607;29;20055;-65
2022/11/26 08:09:51;;;;;;;32.47;13.68;;;;;;;;;;4897291;29;20072;-65
2022/11/26 08:12:17;;;;;;;37.03;14.57;;;;;;;;;;4895839;29;20057;-65
2022/11/26 08:14:44;;;;;;;34.20;14.57;;;;;;;;;;4912031;29;20052;-64
2022/11/26 08:17:10;;;;;;;47.88;15.07;;;;;;;;;;4896490;29;20465;-64
2022/11/26 08:19:36;;;;;;;42.05;14.52;;;;;;;;;;4911603;29;20053;-64
2022/11/26 08:22:03;;;;;;;33.60;13.65;;;;;;;;;;4897138;29;20103;-64
2022/11/26 08:24:30;;;;;;;30.00;12.40;;;;;;;;;;4897172;29;20056;-64
2022/11/26 08:26:59;;;;;;;38.47;13.60;;;;;;;;;;4896416;29;20051;-64
2022/11/26 08:29:25;;;;;;;34.15;15.95;;;;;;;;;;4897154;29;20048;-64
2022/11/26 08:31:52;;;;;;;40.60;18.40;;;;;;;;;;4911308;29;20051;-64
2022/11/26 08:34:18;;;;;;;37.78;14.40;;;;;;;;;;4897033;29;20410;-64
2022/11/26 08:36:45;;;;;;;28.85;14.48;;;;;;;;;;4896302;29;20053;-64
2022/11/26 08:39:12;;;;;;;30.23;12.80;;;;;;;;;;4896861;29;20044;-65
2022/11/26 08:41:39;;;;;;;45.72;16.98;;;;;;;;;;4896852;29;20040;-64
2022/11/26 08:44:05;;;;;;;42.28;17.15;;;;;;;;;;4896834;29;20413;-65
2022/11/26 08:46:37;;;;;;;45.10;19.13;;;;;;;;;;4896353;29;20112;-65
2022/11/26 08:49:04;;;;;;;30.85;14.80;;;;;;;;;;4896976;29;20044;-64
2022/11/26 08:51:31;;;;;;;37.58;14.23;;;;;;;;;;4896808;29;20052;-64
2022/11/26 08:53:57;;;;;;;37.38;13.38;;;;;;;;;;4900505;29;20041;-64
2022/11/26 08:56:24;;;;;;;32.20;13.18;;;;;;;;;;4914633;29;20076;-65
2022/11/26 08:58:50;;;;;;;30.65;13.30;;;;;;;;;;4900596;29;20045;-64
2022/11/26 09:01:19;;;;;;;30.63;13.98;;;;;;;;;;4914950;29;20658;-67
2022/11/26 09:03:50;;;;;;;24.95;12.77;;;;;;;;;;4915007;29;20049;-66
2022/11/26 09:06:17;;;;;;;27.85;12.48;;;;;;;;;;4914751;29;20060;-66
2022/11/26 09:11:28;;;;;;;35.45;16.92;;;;;;;;;;4900751;29;20044;-65
2022/11/26 09:13:56;;;;;;;29.90;14.77;;;;;;;;;;4900670;29;20096;-66
2022/11/26 09:16:23;;;;;;;31.55;14.30;;;;;;;;;;4905560;29;20089;-67
2022/11/26 09:18:50;;;;;;;34.17;14.18;;;;;;;;;;4906394;29;20412;-66
2022/11/26 09:21:17;;;;;;;33.53;13.32;;;;;;;;;;4905943;29;20045;-66
2022/11/26 09:23:43;;;;;;;31.65;16.23;;;;;;;;;;4905688;29;20048;-66
2022/11/26 09:26:09;;;;;;;28.33;13.57;;;;;;;;;;4905677;29;20049;-66
2022/11/26 09:28:36;;;;;;;26.83;13.52;;;;;;;;;;4903646;29;20048;-66
2022/11/26 09:31:02;;;;;;;29.10;13.77;;;;;;;;;;4904892;29;20092;-67
2022/11/26 09:33:29;;;;;;;33.85;16.33;;;;;;;;;;4905004;29;20069;-66
2022/11/26 09:36:02;;;;;;;33.92;14.98;;;;;;;;;;4901956;29;20096;-66
2022/11/26 09:38:29;;;;;;;33.47;16.25;;;;;;;;;;4900770;29;20047;-66
2022/11/26 09:41:02;;;;;;;34.55;18.00;;;;;;;;;;4900644;29;20052;-66
2022/11/26 09:43:35;;;;;;;35.63;17.17;;;;;;;;;;4900653;29;20052;-66
2022/11/26 09:46:02;;;;;;;32.75;15.43;;;;;;;;;;4914862;29;20048;-66
2022/11/26 09:48:31;;;;;;;30.85;15.55;;;;;;;;;;4900439;29;20136;-66
2022/11/26 09:51:08;;;;;;;35.60;16.35;;;;;;;;;;4900127;29;20051;-67
2022/11/26 09:53:36;;;;;;;31.35;15.35;;;;;;;;;;4900011;29;20052;-66
2022/11/26 09:56:03;;;;;;;25.70;14.10;;;;;;;;;;4914214;29;20115;-67
2022/11/26 09:58:35;;;;;;;28.02;15.30;;;;;;;;;;4898740;29;20103;-66
2022/11/26 10:01:03;;;;;;;34.63;16.08;;;;;;;;;;4899868;29;20053;-66
2022/11/26 10:03:31;;;;;;;35.35;17.73;;;;;;;;;;4897720;29;20517;-66
2022/11/26 10:06:08;;;;;;;51.28;20.40;;;;;;;;;;4899644;29;20053;-66
2022/11/26 10:08:53;;;;;;;48.35;19.20;;;;;;;;;;4901676;29;20044;-66
2022/11/26 10:11:25;;;;;;;28.67;15.30;;;;;;;;;;4916406;29;20110;-67
2022/11/26 10:13:58;;;;;;;37.60;16.95;;;;;;;;;;4900340;29;20041;-66
2022/11/26 10:16:27;;;;;;;35.30;14.25;;;;;;;;;;4901275;29;20040;-66
2022/11/26 10:18:56;;;;;;;31.75;14.60;;;;;;;;;;4902171;29;20040;-66
2022/11/26 10:21:26;;;;;;;34.17;16.70;;;;;;;;;;4900586;29;20052;-66
2022/11/26 10:24:15;;;;;;;38.42;18.60;;;;;;;;;;4899528;29;20450;-66
2022/11/26 10:26:43;;;;;;;43.17;22.45;;;;;;;;;;4899470;29;20037;-66
2022/11/26 10:29:17;;;;;;;23.25;13.77;;;;;;;;;;4899770;29;20545;-65
2022/11/26 10:31:45;;;;;;;22.42;13.60;;;;;;;;;;4899503;29;20446;-67
2022/11/26 10:34:37;;;;;;;20.35;12.05;;;;;;;;;;4899493;29;20126;-65
2022/11/26 10:37:05;;;;;;;25.33;13.80;;;;;;;;;;4893416;29;20135;-65
2022/11/26 10:39:31;;;;;;;21.50;12.40;;;;;;;;;;4913677;29;20080;-64
2022/11/26 10:42:02;;;;;;;20.27;12.57;;;;;;;;;;4913600;29;20051;-65
2022/11/26 10:44:39;;;;;;;24.38;13.75;;;;;;;;;;4899482;29;20049;-65
2022/11/26 10:47:26;;;;;;;24.05;13.30;;;;;;;;;;4898890;29;20051;-65
2022/11/26 10:49:54;;;;;;;24.13;13.80;;;;;;;;;;4899041;29;20072;-67
2022/11/26 10:52:23;;;;;;;22.80;12.88;;;;;;;;;;4913381;29;20135;-68
2022/11/26 10:55:26;;;;;;;20.15;11.77;;;;;;;;;;4897883;29;20049;-66
2022/11/26 10:57:58;;;;;;;17.67;12.40;;;;;;;;;;4840560;29;20062;-66
2022/11/26 11:00:30;;;;;;;18.92;10.02;;;;;;;;;;4889677;29;20596;-66
2022/11/26 11:02:57;;;;;;;17.63;10.45;;;;;;;;;;4912976;29;20493;-65
2022/11/26 11:05:24;;;;;;;20.25;11.55;;;;;;;;;;4912476;29;20044;-66
2022/11/26 11:07:53;;;;;;;19.20;10.95;;;;;;;;;;4898990;29;20501;-65
2022/11/26 11:10:22;;;;;;;23.60;12.98;;;;;;;;;;4898860;29;20060;-65
2022/11/26 11:13:01;;;;;;;16.23;9.35;;;;;;;;;;4913364;29;20112;-66
2022/11/26 11:15:29;;;;;;;16.58;8.40;;;;;;;;;;4898242;29;20116;-65
2022/11/26 11:18:17;;;;;;;22.40;10.98;;;;;;;;;;4899023;29;20045;-66
2022/11/26 11:20:54;;;;;;;17.50;9.60;;;;;;;;;;4898737;29;20104;-66
2022/11/26 11:23:22;;;;;;;15.77;8.65;;;;;;;;;;4913499;29;20052;-65
2022/11/26 11:26:22;;;;;;;13.15;7.95;;;;;;;;;;4910408;29;20096;-65
2022/11/26 11:28:53;;;;;;;14.80;7.63;;;;;;;;;;4913206;29;20485;-65
2022/11/26 11:31:23;;;;;;;14.65;7.28;;;;;;;;;;4898487;29;20485;-69
2022/11/26 11:33:50;;;;;;;12.45;7.05;;;;;;;;;;4912858;29;20045;-65
2022/11/26 11:36:19;;;;;;;11.95;7.90;;;;;;;;;;4912382;29;20520;-65
2022/11/26 11:38:56;;;;;;;14.73;8.23;;;;;;;;;;4898223;29;20048;-65
2022/11/26 11:41:34;;;;;;;16.73;7.85;;;;;;;;;;4896885;29;20060;-66
2022/11/26 11:44:01;;;;;;;13.95;7.78;;;;;;;;;;4898285;29;20392;-65
2022/11/26 11:46:40;;;;;;;13.73;7.32;;;;;;;;;;4911850;29;20044;-65
2022/11/26 11:49:24;;;;;;;13.73;7.95;;;;;;;;;;4897883;29;20416;-66
2022/11/26 11:52:07;;;;;;;11.63;6.97;;;;;;;;;;4898120;29;20497;-64
2022/11/26 11:54:55;;;;;;;10.70;6.18;;;;;;;;;;4898931;29;20553;-63
2022/11/26 11:57:42;;;;;;;9.35;5.82;;;;;;;;;;4914919;29;20107;-64
2022/11/26 12:00:15;;;;;;;8.52;5.03;;;;;;;;;;4898759;29;20069;-66
2022/11/26 12:02:57;;;;;;;7.55;5.40;;;;;;;;;;4898060;29;20040;-64
2022/11/26 12:05:26;;;;;;;11.70;5.85;;;;;;;;;;4911929;29;20067;-63
2022/11/26 12:08:00;;;;;;;14.90;7.25;;;;;;;;;;4897817;29;20040;-63
2022/11/26 12:10:36;;;;;;;10.15;5.90;;;;;;;;;;4898020;29;20044;-63
2022/11/26 12:13:05;;;;;;;13.35;7.53;;;;;;;;;;4912717;29;20068;-64
2022/11/26 12:15:37;;;;;;;11.35;6.32;;;;;;;;;;4897388;29;20055;-64
2022/11/26 12:18:12;;;;;;;14.18;8.55;;;;;;;;;;4897389;29;20059;-65
2022/11/26 12:20:43;;;;;;;13.70;6.50;;;;;;;;;;4912821;29;20734;-64
2022/11/26 12:23:21;;;;;;;11.50;5.53;;;;;;;;;;4897875;29;20047;-66
2022/11/26 12:25:51;;;;;;;14.77;6.80;;;;;;;;;;4897278;29;20041;-65
2022/11/26 12:28:26;;;;;;;12.85;6.30;;;;;;;;;;4897428;29;20044;-66
2022/11/26 12:30:53;;;;;;;12.00;6.20;;;;;;;;;;4912657;29;20127;-65
2022/11/26 12:33:25;;;;;;;10.95;6.13;;;;;;;;;;4897284;29;20045;-65
2022/11/26 12:35:54;;;;;;;13.63;6.70;;;;;;;;;;4911187;29;20059;-66
2022/11/26 12:38:20;;;;;;;14.98;7.38;;;;;;;;;;4897083;29;20096;-67
2022/11/26 12:40:49;;;;;;;14.98;9.00;;;;;;;;;;4897010;29;20052;-67
2022/11/26 12:43:35;;;;;;;12.30;6.75;;;;;;;;;;4897285;29;20141;-67
2022/11/26 12:46:09;;;;;;;10.82;6.47;;;;;;;;;;4910881;29;20063;-65
2022/11/26 12:48:45;;;;;;;12.20;6.65;;;;;;;;;;4897004;29;20405;-66
2022/11/26 12:51:11;;;;;;;11.73;6.45;;;;;;;;;;4896936;29;20528;-67
2022/11/26 12:53:41;;;;;;;9.95;6.18;;;;;;;;;;4897097;29;20568;-66
2022/11/26 12:56:20;;;;;;;10.52;6.80;;;;;;;;;;4896503;29;20049;-67
2022/11/26 12:59:01;;;;;;;12.90;6.90;;;;;;;;;;4911406;29;20053;-66
2022/11/26 13:01:29;;;;;;;12.30;6.20;;;;;;;;;;4896723;29;20056;-66
2022/11/26 13:03:56;;;;;;;12.02;7.10;;;;;;;;;;4911105;29;20497;-66
2022/11/26 13:06:50;;;;;;;11.95;6.40;;;;;;;;;;4896211;29;20493;-68
2022/11/26 13:09:16;;;;;;;;;;;;;;;;;;4911756;29;20053;-67
2022/11/26 13:11:59;;;;;;;10.65;6.97;;;;;;;;;;4896731;29;19978;-66
2022/11/26 13:14:31;;;;;;;12.93;7.15;;;;;;;;;;4896789;29;20119;-66
2022/11/26 13:17:00;;;;;;;16.40;6.75;;;;;;;;;;4894819;29;20180;-66
2022/11/26 13:19:46;;;;;;;12.75;7.57;;;;;;;;;;4911150;29;20439;-66
2022/11/26 13:22:36;;;;;;;12.35;9.13;;;;;;;;;;4896620;29;20080;-65
2022/11/26 13:25:02;;;;;;;17.30;9.25;;;;;;;;;;4887591;29;20056;-66
2022/11/26 13:27:35;;;;;;;13.85;8.05;;;;;;;;;;4896550;29;20055;-66
2022/11/26 13:30:23;;;;;;;16.00;7.90;;;;;;;;;;4911482;29;20053;-67
2022/11/26 13:32:49;;;;;;;16.55;8.48;;;;;;;;;;4910944;29;20157;-66
2022/11/26 13:35:21;;;;;;;18.35;8.05;;;;;;;;;;4910570;29;20057;-65
2022/11/26 13:37:48;;;;;;;25.17;8.25;;;;;;;;;;4896676;29;20045;-66
2022/11/26 13:40:28;;;;;;;18.15;8.57;;;;;;;;;;4913512;29;20048;-65
2022/11/26 13:43:21;;;;;;;15.30;8.60;;;;;;;;;;4900051;29;20119;-66
2022/11/26 13:46:01;;;;;;;16.90;8.60;;;;;;;;;;4899413;29;20041;-66
2022/11/26 13:48:27;;;;;;;13.15;8.45;;;;;;;;;;4899896;29;20037;-66
2022/11/26 13:50:59;;;;;;;18.38;8.07;;;;;;;;;;4900017;29;20037;-66
2022/11/26 13:53:28;;;;;;;14.73;7.85;;;;;;;;;;4900016;29;20528;-66
2022/11/26 13:55:58;;;;;;;13.55;7.63;;;;;;;;;;4899399;29;20048;-65
2022/11/26 13:58:30;;;;;;;15.05;8.02;;;;;;;;;;4914644;29;20119;-65
2022/11/26 14:01:17;;;;;;;20.48;8.68;;;;;;;;;;4915061;29;20048;-65
2022/11/26 14:03:45;;;;;;;12.73;7.93;;;;;;;;;;4915004;29;20588;-66
2022/11/26 14:06:12;;;;;;;36.78;10.07;;;;;;;;;;4913915;29;20065;-66
2022/11/26 14:08:40;;;;;;;15.57;7.55;;;;;;;;;;4914713;29;20049;-67
2022/11/26 14:11:07;;;;;;;13.25;6.97;;;;;;;;;;4914884;29;20450;-67
2022/11/26 14:13:34;;;;;;;21.58;8.20;;;;;;;;;;4899788;29;20049;-66
2022/11/26 14:16:07;;;;;;;14.38;7.03;;;;;;;;;;4913510;29;20053;-67
2022/11/26 14:18:46;;;;;;;14.38;7.80;;;;;;;;;;4899368;29;20056;-67
2022/11/26 14:21:14;;;;;;;14.63;7.35;;;;;;;;;;4913951;29;20057;-66
2022/11/26 14:23:43;;;;;;;13.02;7.32;;;;;;;;;;4913821;29;20607;-66
2022/11/26 14:26:12;;;;;;;15.52;7.53;;;;;;;;;;4913182;29;20446;-66
2022/11/26 14:28:39;;;;;;;12.55;7.40;;;;;;;;;;4913808;29;20438;-66
2022/11/26 14:31:19;;;;;;;12.93;6.68;;;;;;;;;;4899331;29;20040;-66
2022/11/26 14:33:47;;;;;;;12.98;6.70;;;;;;;;;;4899353;29;20104;-66
2022/11/26 14:36:31;;;;;;;11.35;6.95;;;;;;;;;;4898609;29;20072;-65
2022/11/26 14:39:16;;;;;;;14.38;6.85;;;;;;;;;;4899135;29;20089;-65
2022/11/26 14:41:43;;;;;;;13.15;7.07;;;;;;;;;;4898976;29;20611;-66
2022/11/26 14:44:10;;;;;;;16.50;7.43;;;;;;;;;;4898831;29;20068;-67
2022/11/26 14:46:37;;;;;;;15.00;7.32;;;;;;;;;;4912552;29;20508;-66